sensor_id;sensor_type;location;lat;lon;timestamp;temperature;humidity
20712;DHT22;10517;50.742;4.224;2023-12-22T00:01:40;10.20;99.90
20712;DHT22;10517;50.742;4.224;2023-12-22T00:04:06;10.10;99.90
20712;DHT22;10517;50.742;4.224;2023-12-22T00:06:32;10.10;99.90
20712;DHT22;10517;50.742;4.224;2023-12-22T00:08:58;10.00;99.90
20712;DHT22;10517;50.742;4.224;2023-12-22T00:11:23;9.70;99.90
20712;DHT22;10517;50.742;4.224;2023-12-22T00:13:49;9.30;99.90
20712;DHT22;10517;50.742;4.224;2023-12-22T00:16:15;8.90;99.90
20712;DHT22;10517;50.742;4.224;2023-12-22T00:18:40;8.60;99.90
20712;DHT22;10517;50.742;4.224;2023-12-22T00:21:10;8.40;99.90
20712;DHT22;10517;50.742;4.224;2023-12-22T00:23:36;8.30;99.90
20712;DHT22;10517;50.742;4.224;2023-12-22T00:26:01;8.20;99.90
20712;DHT22;10517;50.742;4.224;2023-12-22T00:28:27;8.10;99.90
20712;DHT22;10517;50.742;4.224;2023-12-22T00:30:53;8.00;99.90
20712;DHT22;10517;50.742;4.224;2023-12-22T00:33:18;8.00;99.90
20712;DHT22;10517;50.742;4.224;2023-12-22T00:35:44;8.10;99.90
20712;DHT22;10517;50.742;4.224;2023-12-22T00:38:09;8.00;99.90
20712;DHT22;10517;50.742;4.224;2023-12-22T00:40:35;8.00;99.90
20712;DHT22;10517;50.742;4.224;2023-12-22T00:43:01;8.00;99.90
20712;DHT22;10517;50.742;4.224;2023-12-22T00:45:27;8.00;99.90
20712;DHT22;10517;50.742;4.224;2023-12-22T00:47:52;8.00;99.90
20712;DHT22;10517;50.742;4.224;2023-12-22T00:50:18;8.00;99.90
20712;DHT22;10517;50.742;4.224;2023-12-22T00:52:43;8.00;99.90
20712;DHT22;10517;50.742;4.224;2023-12-22T00:55:09;8.00;99.90
20712;DHT22;10517;50.742;4.224;2023-12-22T00:57:35;8.10;99.90
20712;DHT22;10517;50.742;4.224;2023-12-22T01:00:00;8.10;99.90
20712;DHT22;10517;50.742;4.224;2023-12-22T01:02:26;8.20;99.90
20712;DHT22;10517;50.742;4.224;2023-12-22T01:04:52;8.20;99.90
20712;DHT22;10517;50.742;4.224;2023-12-22T01:07:17;8.30;99.90
20712;DHT22;10517;50.742;4.224;2023-12-22T01:09:44;8.40;99.90
20712;DHT22;10517;50.742;4.224;2023-12-22T01:12:09;8.40;99.90
20712;DHT22;10517;50.742;4.224;2023-12-22T01:14:36;8.50;99.90
20712;DHT22;10517;50.742;4.224;2023-12-22T01:17:02;8.50;99.90
20712;DHT22;10517;50.742;4.224;2023-12-22T01:19:27;8.50;99.90
20712;DHT22;10517;50.742;4.224;2023-12-22T01:21:53;8.60;99.90
20712;DHT22;10517;50.742;4.224;2023-12-22T01:24:19;8.60;99.90
20712;DHT22;10517;50.742;4.224;2023-12-22T01:26:45;8.60;99.90
20712;DHT22;10517;50.742;4.224;2023-12-22T01:29:10;8.60;99.90
20712;DHT22;10517;50.742;4.224;2023-12-22T01:31:36;8.70;99.90
20712;DHT22;10517;50.742;4.224;2023-12-22T01:34:02;8.70;99.90
20712;DHT22;10517;50.742;4.224;2023-12-22T01:36:28;8.70;99.90
20712;DHT22;10517;50.742;4.224;2023-12-22T01:38:53;8.70;99.90
20712;DHT22;10517;50.742;4.224;2023-12-22T01:41:19;8.70;99.90
20712;DHT22;10517;50.742;4.224;2023-12-22T01:43:45;8.70;99.90
20712;DHT22;10517;50.742;4.224;2023-12-22T01:46:12;8.70;99.90
20712;DHT22;10517;50.742;4.224;2023-12-22T01:48:39;8.70;99.90
20712;DHT22;10517;50.742;4.224;2023-12-22T01:51:06;8.70;99.90
20712;DHT22;10517;50.742;4.224;2023-12-22T01:53:32;8.70;99.90
20712;DHT22;10517;50.742;4.224;2023-12-22T01:56:00;8.70;99.90
20712;DHT22;10517;50.742;4.224;2023-12-22T01:58:26;8.80;99.90
20712;DHT22;10517;50.742;4.224;2023-12-22T02:00:53;8.90;99.90
20712;DHT22;10517;50.742;4.224;2023-12-22T02:03:19;8.90;99.90
20712;DHT22;10517;50.742;4.224;2023-12-22T02:05:45;9.00;99.90
20712;DHT22;10517;50.742;4.224;2023-12-22T02:08:11;9.00;99.90
20712;DHT22;10517;50.742;4.224;2023-12-22T02:10:37;9.00;99.90
20712;DHT22;10517;50.742;4.224;2023-12-22T02:13:06;9.00;99.90
20712;DHT22;10517;50.742;4.224;2023-12-22T02:15:32;9.00;99.90
20712;DHT22;10517;50.742;4.224;2023-12-22T02:18:07;9.10;99.90
20712;DHT22;10517;50.742;4.224;2023-12-22T02:20:34;9.10;99.90
20712;DHT22;10517;50.742;4.224;2023-12-22T02:23:00;9.00;99.90
20712;DHT22;10517;50.742;4.224;2023-12-22T02:25:25;8.90;99.90
20712;DHT22;10517;50.742;4.224;2023-12-22T02:28:01;8.80;99.90
20712;DHT22;10517;50.742;4.224;2023-12-22T02:30:51;8.80;99.90
20712;DHT22;10517;50.742;4.224;2023-12-22T02:33:18;8.80;99.90
20712;DHT22;10517;50.742;4.224;2023-12-22T02:35:48;8.70;99.90
20712;DHT22;10517;50.742;4.224;2023-12-22T02:38:15;8.70;99.90
20712;DHT22;10517;50.742;4.224;2023-12-22T02:40:41;8.70;99.90
20712;DHT22;10517;50.742;4.224;2023-12-22T02:43:08;8.70;99.90
20712;DHT22;10517;50.742;4.224;2023-12-22T02:45:34;8.70;99.90
20712;DHT22;10517;50.742;4.224;2023-12-22T02:48:00;8.70;99.90
20712;DHT22;10517;50.742;4.224;2023-12-22T02:50:26;8.80;99.90
20712;DHT22;10517;50.742;4.224;2023-12-22T02:52:51;8.80;99.90
20712;DHT22;10517;50.742;4.224;2023-12-22T02:55:17;8.70;99.90
20712;DHT22;10517;50.742;4.224;2023-12-22T02:57:43;8.70;99.90
20712;DHT22;10517;50.742;4.224;2023-12-22T03:00:09;8.60;99.90
20712;DHT22;10517;50.742;4.224;2023-12-22T03:02:34;8.50;99.90
20712;DHT22;10517;50.742;4.224;2023-12-22T03:05:00;8.50;99.90
20712;DHT22;10517;50.742;4.224;2023-12-22T03:07:25;8.60;99.90
20712;DHT22;10517;50.742;4.224;2023-12-22T03:09:51;8.50;99.90
20712;DHT22;10517;50.742;4.224;2023-12-22T03:12:17;8.50;99.90
20712;DHT22;10517;50.742;4.224;2023-12-22T03:14:42;8.50;99.90
20712;DHT22;10517;50.742;4.224;2023-12-22T03:17:08;8.50;99.90
20712;DHT22;10517;50.742;4.224;2023-12-22T03:19:35;8.50;99.90
20712;DHT22;10517;50.742;4.224;2023-12-22T03:22:00;8.40;99.90
20712;DHT22;10517;50.742;4.224;2023-12-22T03:24:26;8.40;99.90
20712;DHT22;10517;50.742;4.224;2023-12-22T03:26:53;8.40;99.90
20712;DHT22;10517;50.742;4.224;2023-12-22T03:29:20;8.50;99.90
20712;DHT22;10517;50.742;4.224;2023-12-22T03:31:46;8.50;99.90
20712;DHT22;10517;50.742;4.224;2023-12-22T03:34:12;8.50;99.90
20712;DHT22;10517;50.742;4.224;2023-12-22T03:36:38;8.50;99.90
20712;DHT22;10517;50.742;4.224;2023-12-22T03:39:04;8.50;99.90
20712;DHT22;10517;50.742;4.224;2023-12-22T03:41:30;8.50;99.90
20712;DHT22;10517;50.742;4.224;2023-12-22T03:43:56;8.40;99.90
20712;DHT22;10517;50.742;4.224;2023-12-22T03:46:22;8.40;99.90
20712;DHT22;10517;50.742;4.224;2023-12-22T03:48:48;8.40;99.90
20712;DHT22;10517;50.742;4.224;2023-12-22T03:51:14;8.40;99.90
20712;DHT22;10517;50.742;4.224;2023-12-22T03:53:41;8.50;99.90
20712;DHT22;10517;50.742;4.224;2023-12-22T03:56:07;8.50;99.90
20712;DHT22;10517;50.742;4.224;2023-12-22T03:58:34;8.50;99.90
20712;DHT22;10517;50.742;4.224;2023-12-22T04:01:00;8.50;99.90
20712;DHT22;10517;50.742;4.224;2023-12-22T04:03:25;8.50;99.90
20712;DHT22;10517;50.742;4.224;2023-12-22T04:05:51;8.50;99.90
20712;DHT22;10517;50.742;4.224;2023-12-22T04:08:17;8.50;99.90
20712;DHT22;10517;50.742;4.224;2023-12-22T04:10:43;8.50;99.90
20712;DHT22;10517;50.742;4.224;2023-12-22T04:13:09;8.50;99.90
20712;DHT22;10517;50.742;4.224;2023-12-22T04:15:35;8.60;99.90
20712;DHT22;10517;50.742;4.224;2023-12-22T04:18:01;8.70;99.90
20712;DHT22;10517;50.742;4.224;2023-12-22T04:20:27;8.70;99.90
20712;DHT22;10517;50.742;4.224;2023-12-22T04:22:52;8.70;99.90
20712;DHT22;10517;50.742;4.224;2023-12-22T04:25:18;8.50;99.90
20712;DHT22;10517;50.742;4.224;2023-12-22T04:27:44;8.40;99.90
20712;DHT22;10517;50.742;4.224;2023-12-22T04:30:10;8.40;99.90
20712;DHT22;10517;50.742;4.224;2023-12-22T04:32:36;8.50;99.90
20712;DHT22;10517;50.742;4.224;2023-12-22T04:35:02;8.60;99.90
20712;DHT22;10517;50.742;4.224;2023-12-22T04:37:27;8.50;99.90
20712;DHT22;10517;50.742;4.224;2023-12-22T04:39:53;8.40;99.90
20712;DHT22;10517;50.742;4.224;2023-12-22T04:42:19;8.40;99.90
20712;DHT22;10517;50.742;4.224;2023-12-22T04:44:45;8.40;99.90
20712;DHT22;10517;50.742;4.224;2023-12-22T04:47:10;8.40;99.90
20712;DHT22;10517;50.742;4.224;2023-12-22T04:49:38;8.30;99.90
20712;DHT22;10517;50.742;4.224;2023-12-22T04:52:03;8.30;99.90
20712;DHT22;10517;50.742;4.224;2023-12-22T04:54:29;8.30;99.90
20712;DHT22;10517;50.742;4.224;2023-12-22T04:56:55;8.20;99.90
20712;DHT22;10517;50.742;4.224;2023-12-22T04:59:20;8.30;99.90
20712;DHT22;10517;50.742;4.224;2023-12-22T05:01:46;8.30;99.90
20712;DHT22;10517;50.742;4.224;2023-12-22T05:04:11;8.30;99.90
20712;DHT22;10517;50.742;4.224;2023-12-22T05:06:37;8.30;99.90
20712;DHT22;10517;50.742;4.224;2023-12-22T05:09:03;8.30;99.90
20712;DHT22;10517;50.742;4.224;2023-12-22T05:11:29;8.40;99.90
20712;DHT22;10517;50.742;4.224;2023-12-22T05:13:54;8.40;99.90
20712;DHT22;10517;50.742;4.224;2023-12-22T05:16:20;8.40;99.90
20712;DHT22;10517;50.742;4.224;2023-12-22T05:18:46;8.40;99.90
20712;DHT22;10517;50.742;4.224;2023-12-22T05:21:13;8.50;99.90
20712;DHT22;10517;50.742;4.224;2023-12-22T05:23:39;8.50;99.90
20712;DHT22;10517;50.742;4.224;2023-12-22T05:26:05;8.50;99.90
20712;DHT22;10517;50.742;4.224;2023-12-22T05:28:31;8.60;99.90
20712;DHT22;10517;50.742;4.224;2023-12-22T05:30:57;8.60;99.90
20712;DHT22;10517;50.742;4.224;2023-12-22T05:33:23;8.60;99.90
20712;DHT22;10517;50.742;4.224;2023-12-22T05:35:48;8.60;99.90
20712;DHT22;10517;50.742;4.224;2023-12-22T05:38:14;8.60;99.90
20712;DHT22;10517;50.742;4.224;2023-12-22T05:40:39;8.50;99.90
20712;DHT22;10517;50.742;4.224;2023-12-22T05:43:05;8.60;99.90
20712;DHT22;10517;50.742;4.224;2023-12-22T05:45:31;8.60;99.90
20712;DHT22;10517;50.742;4.224;2023-12-22T05:47:56;8.60;99.90
20712;DHT22;10517;50.742;4.224;2023-12-22T05:50:22;8.70;99.90
20712;DHT22;10517;50.742;4.224;2023-12-22T05:52:47;8.70;99.90
20712;DHT22;10517;50.742;4.224;2023-12-22T05:55:13;8.70;99.90
20712;DHT22;10517;50.742;4.224;2023-12-22T05:57:39;8.80;99.90
20712;DHT22;10517;50.742;4.224;2023-12-22T06:00:05;8.80;99.90
20712;DHT22;10517;50.742;4.224;2023-12-22T06:02:33;8.80;99.90
20712;DHT22;10517;50.742;4.224;2023-12-22T06:04:59;8.90;99.90
20712;DHT22;10517;50.742;4.224;2023-12-22T06:07:25;9.00;99.90
20712;DHT22;10517;50.742;4.224;2023-12-22T06:09:50;9.00;99.90
20712;DHT22;10517;50.742;4.224;2023-12-22T06:12:16;9.00;99.90
20712;DHT22;10517;50.742;4.224;2023-12-22T06:14:41;9.00;99.90
20712;DHT22;10517;50.742;4.224;2023-12-22T06:17:07;9.10;99.90
20712;DHT22;10517;50.742;4.224;2023-12-22T06:19:34;9.20;99.90
20712;DHT22;10517;50.742;4.224;2023-12-22T06:22:00;9.30;99.90
20712;DHT22;10517;50.742;4.224;2023-12-22T06:24:26;9.30;99.90
20712;DHT22;10517;50.742;4.224;2023-12-22T06:26:51;9.30;99.90
20712;DHT22;10517;50.742;4.224;2023-12-22T06:29:17;9.30;99.90
20712;DHT22;10517;50.742;4.224;2023-12-22T06:31:43;9.20;99.90
20712;DHT22;10517;50.742;4.224;2023-12-22T06:34:08;9.30;99.90
20712;DHT22;10517;50.742;4.224;2023-12-22T06:36:34;9.30;99.90
20712;DHT22;10517;50.742;4.224;2023-12-22T06:39:00;9.40;99.90
20712;DHT22;10517;50.742;4.224;2023-12-22T06:41:27;9.40;99.90
20712;DHT22;10517;50.742;4.224;2023-12-22T06:43:53;9.40;99.90
20712;DHT22;10517;50.742;4.224;2023-12-22T06:46:20;9.40;99.90
20712;DHT22;10517;50.742;4.224;2023-12-22T06:48:46;9.30;99.90
20712;DHT22;10517;50.742;4.224;2023-12-22T06:51:26;9.30;99.90
20712;DHT22;10517;50.742;4.224;2023-12-22T06:53:52;9.30;99.90
20712;DHT22;10517;50.742;4.224;2023-12-22T06:56:19;9.30;99.90
20712;DHT22;10517;50.742;4.224;2023-12-22T06:58:46;9.40;99.90
20712;DHT22;10517;50.742;4.224;2023-12-22T07:03:47;9.50;99.90
20712;DHT22;10517;50.742;4.224;2023-12-22T07:06:16;9.50;99.90
20712;DHT22;10517;50.742;4.224;2023-12-22T07:08:42;9.60;99.90
20712;DHT22;10517;50.742;4.224;2023-12-22T07:11:12;9.70;99.90
20712;DHT22;10517;50.742;4.224;2023-12-22T07:13:38;9.70;99.90
20712;DHT22;10517;50.742;4.224;2023-12-22T07:16:05;9.70;99.90
20712;DHT22;10517;50.742;4.224;2023-12-22T07:18:30;9.70;99.90
20712;DHT22;10517;50.742;4.224;2023-12-22T07:20:57;9.70;99.90
20712;DHT22;10517;50.742;4.224;2023-12-22T07:23:23;9.70;99.90
20712;DHT22;10517;50.742;4.224;2023-12-22T07:25:49;9.70;99.90
20712;DHT22;10517;50.742;4.224;2023-12-22T07:28:15;9.70;99.90
20712;DHT22;10517;50.742;4.224;2023-12-22T07:30:41;9.70;99.90
20712;DHT22;10517;50.742;4.224;2023-12-22T07:33:07;9.70;99.90
20712;DHT22;10517;50.742;4.224;2023-12-22T07:35:33;9.70;99.90
20712;DHT22;10517;50.742;4.224;2023-12-22T07:37:58;9.80;99.90
20712;DHT22;10517;50.742;4.224;2023-12-22T07:40:24;9.80;99.90
20712;DHT22;10517;50.742;4.224;2023-12-22T07:42:50;9.80;99.90
20712;DHT22;10517;50.742;4.224;2023-12-22T07:45:16;9.80;99.90
20712;DHT22;10517;50.742;4.224;2023-12-22T07:47:41;9.80;99.90
20712;DHT22;10517;50.742;4.224;2023-12-22T07:50:08;9.80;99.90
20712;DHT22;10517;50.742;4.224;2023-12-22T07:52:37;9.90;99.90
20712;DHT22;10517;50.742;4.224;2023-12-22T07:55:08;9.90;99.90
20712;DHT22;10517;50.742;4.224;2023-12-22T07:57:38;9.90;99.90
20712;DHT22;10517;50.742;4.224;2023-12-22T08:00:04;9.90;99.90
20712;DHT22;10517;50.742;4.224;2023-12-22T08:02:30;9.90;99.90
20712;DHT22;10517;50.742;4.224;2023-12-22T08:04:56;9.80;99.90
20712;DHT22;10517;50.742;4.224;2023-12-22T08:07:22;9.80;99.90
20712;DHT22;10517;50.742;4.224;2023-12-22T08:09:48;9.70;99.90
20712;DHT22;10517;50.742;4.224;2023-12-22T08:12:13;9.70;99.90
20712;DHT22;10517;50.742;4.224;2023-12-22T08:14:39;9.70;99.90
20712;DHT22;10517;50.742;4.224;2023-12-22T08:17:04;9.80;99.90
20712;DHT22;10517;50.742;4.224;2023-12-22T08:19:30;9.80;99.90
20712;DHT22;10517;50.742;4.224;2023-12-22T08:21:56;9.80;99.90
20712;DHT22;10517;50.742;4.224;2023-12-22T08:24:22;9.80;99.90
20712;DHT22;10517;50.742;4.224;2023-12-22T08:26:47;9.80;99.90
20712;DHT22;10517;50.742;4.224;2023-12-22T08:29:13;9.70;99.90
20712;DHT22;10517;50.742;4.224;2023-12-22T08:31:39;9.80;99.90
20712;DHT22;10517;50.742;4.224;2023-12-22T08:34:05;9.80;99.90
20712;DHT22;10517;50.742;4.224;2023-12-22T08:36:31;9.80;99.90
20712;DHT22;10517;50.742;4.224;2023-12-22T08:38:57;9.70;99.90
20712;DHT22;10517;50.742;4.224;2023-12-22T08:41:22;9.80;99.90
20712;DHT22;10517;50.742;4.224;2023-12-22T08:43:48;9.80;99.90
20712;DHT22;10517;50.742;4.224;2023-12-22T08:46:14;9.80;99.90
20712;DHT22;10517;50.742;4.224;2023-12-22T08:48:40;9.80;99.90
20712;DHT22;10517;50.742;4.224;2023-12-22T08:51:05;9.80;99.90
20712;DHT22;10517;50.742;4.224;2023-12-22T08:53:32;9.80;99.90
20712;DHT22;10517;50.742;4.224;2023-12-22T08:56:01;9.80;99.90
20712;DHT22;10517;50.742;4.224;2023-12-22T08:58:27;9.90;99.90
20712;DHT22;10517;50.742;4.224;2023-12-22T09:00:52;9.90;99.90
20712;DHT22;10517;50.742;4.224;2023-12-22T09:03:18;9.80;99.90
20712;DHT22;10517;50.742;4.224;2023-12-22T09:05:43;9.90;99.90
20712;DHT22;10517;50.742;4.224;2023-12-22T09:08:09;9.90;99.90
20712;DHT22;10517;50.742;4.224;2023-12-22T09:10:35;9.90;99.90
20712;DHT22;10517;50.742;4.224;2023-12-22T09:13:01;9.90;99.90
20712;DHT22;10517;50.742;4.224;2023-12-22T09:15:27;10.00;99.90
20712;DHT22;10517;50.742;4.224;2023-12-22T09:17:52;10.00;99.90
20712;DHT22;10517;50.742;4.224;2023-12-22T09:20:19;10.00;99.90
20712;DHT22;10517;50.742;4.224;2023-12-22T09:22:45;10.10;99.90
20712;DHT22;10517;50.742;4.224;2023-12-22T09:25:10;10.10;99.90
20712;DHT22;10517;50.742;4.224;2023-12-22T09:27:36;10.10;99.90
20712;DHT22;10517;50.742;4.224;2023-12-22T09:30:02;10.20;99.90
20712;DHT22;10517;50.742;4.224;2023-12-22T09:32:28;10.20;99.90
20712;DHT22;10517;50.742;4.224;2023-12-22T09:34:53;10.20;99.90
20712;DHT22;10517;50.742;4.224;2023-12-22T09:37:20;10.30;99.90
20712;DHT22;10517;50.742;4.224;2023-12-22T09:39:46;10.30;99.90
20712;DHT22;10517;50.742;4.224;2023-12-22T09:42:11;10.30;99.90
20712;DHT22;10517;50.742;4.224;2023-12-22T09:44:39;10.40;99.90
20712;DHT22;10517;50.742;4.224;2023-12-22T09:47:07;10.40;99.90
20712;DHT22;10517;50.742;4.224;2023-12-22T09:49:35;10.40;99.90
20712;DHT22;10517;50.742;4.224;2023-12-22T09:52:02;10.50;99.90
20712;DHT22;10517;50.742;4.224;2023-12-22T09:54:32;10.50;99.90
20712;DHT22;10517;50.742;4.224;2023-12-22T09:56:59;10.50;99.90
20712;DHT22;10517;50.742;4.224;2023-12-22T09:59:27;10.60;99.90
20712;DHT22;10517;50.742;4.224;2023-12-22T10:01:55;10.70;99.90
20712;DHT22;10517;50.742;4.224;2023-12-22T10:04:20;10.70;99.90
20712;DHT22;10517;50.742;4.224;2023-12-22T10:06:47;10.70;99.90
20712;DHT22;10517;50.742;4.224;2023-12-22T10:09:15;10.70;99.90
20712;DHT22;10517;50.742;4.224;2023-12-22T10:11:43;10.50;99.90
20712;DHT22;10517;50.742;4.224;2023-12-22T10:14:10;10.50;99.90
20712;DHT22;10517;50.742;4.224;2023-12-22T10:16:36;10.50;99.90
20712;DHT22;10517;50.742;4.224;2023-12-22T10:19:03;10.50;99.90
20712;DHT22;10517;50.742;4.224;2023-12-22T10:21:29;10.40;99.90
20712;DHT22;10517;50.742;4.224;2023-12-22T10:23:56;10.40;99.90
20712;DHT22;10517;50.742;4.224;2023-12-22T10:26:22;10.40;99.90
20712;DHT22;10517;50.742;4.224;2023-12-22T10:28:48;10.50;99.90
20712;DHT22;10517;50.742;4.224;2023-12-22T10:31:17;10.50;99.90
20712;DHT22;10517;50.742;4.224;2023-12-22T10:33:46;10.50;99.90
20712;DHT22;10517;50.742;4.224;2023-12-22T10:36:11;10.50;99.90
20712;DHT22;10517;50.742;4.224;2023-12-22T10:38:37;10.50;99.90
20712;DHT22;10517;50.742;4.224;2023-12-22T10:41:03;10.50;99.90
20712;DHT22;10517;50.742;4.224;2023-12-22T10:43:30;10.60;99.90
20712;DHT22;10517;50.742;4.224;2023-12-22T10:45:56;10.60;99.90
20712;DHT22;10517;50.742;4.224;2023-12-22T10:48:25;10.60;99.90
20712;DHT22;10517;50.742;4.224;2023-12-22T10:50:50;10.70;99.90
20712;DHT22;10517;50.742;4.224;2023-12-22T10:53:16;10.70;99.90
20712;DHT22;10517;50.742;4.224;2023-12-22T10:55:42;10.70;99.90
20712;DHT22;10517;50.742;4.224;2023-12-22T10:58:09;10.60;99.90
20712;DHT22;10517;50.742;4.224;2023-12-22T11:00:37;10.40;99.90
20712;DHT22;10517;50.742;4.224;2023-12-22T11:03:07;10.40;99.90
20712;DHT22;10517;50.742;4.224;2023-12-22T11:05:37;10.30;99.90
20712;DHT22;10517;50.742;4.224;2023-12-22T11:08:07;10.30;99.90
20712;DHT22;10517;50.742;4.224;2023-12-22T11:10:39;10.30;99.90
20712;DHT22;10517;50.742;4.224;2023-12-22T11:13:08;10.30;99.90
20712;DHT22;10517;50.742;4.224;2023-12-22T11:15:35;10.30;99.90
20712;DHT22;10517;50.742;4.224;2023-12-22T11:18:01;10.40;99.90
20712;DHT22;10517;50.742;4.224;2023-12-22T11:20:29;10.40;99.90
20712;DHT22;10517;50.742;4.224;2023-12-22T11:22:59;10.40;99.90
20712;DHT22;10517;50.742;4.224;2023-12-22T11:25:25;10.40;99.90
20712;DHT22;10517;50.742;4.224;2023-12-22T11:27:52;10.40;99.90
20712;DHT22;10517;50.742;4.224;2023-12-22T11:30:21;10.40;99.90
20712;DHT22;10517;50.742;4.224;2023-12-22T11:32:49;10.50;99.90
20712;DHT22;10517;50.742;4.224;2023-12-22T11:35:16;10.50;99.90
20712;DHT22;10517;50.742;4.224;2023-12-22T11:37:43;10.50;99.90
20712;DHT22;10517;50.742;4.224;2023-12-22T11:40:09;10.60;99.90
20712;DHT22;10517;50.742;4.224;2023-12-22T11:42:42;10.50;99.90
20712;DHT22;10517;50.742;4.224;2023-12-22T11:45:12;10.50;99.90
20712;DHT22;10517;50.742;4.224;2023-12-22T11:47:40;10.40;99.90
20712;DHT22;10517;50.742;4.224;2023-12-22T11:50:11;10.40;99.90
20712;DHT22;10517;50.742;4.224;2023-12-22T11:52:37;10.40;99.90
20712;DHT22;10517;50.742;4.224;2023-12-22T11:55:03;10.40;99.90
20712;DHT22;10517;50.742;4.224;2023-12-22T12:02:36;10.50;99.90
20712;DHT22;10517;50.742;4.224;2023-12-22T12:05:03;10.60;99.90
20712;DHT22;10517;50.742;4.224;2023-12-22T12:07:46;10.50;99.90
20712;DHT22;10517;50.742;4.224;2023-12-22T12:13:06;10.70;99.90
20712;DHT22;10517;50.742;4.224;2023-12-22T12:15:34;10.70;99.90
20712;DHT22;10517;50.742;4.224;2023-12-22T12:18:01;10.70;99.90
20712;DHT22;10517;50.742;4.224;2023-12-22T12:20:26;10.70;99.90
20712;DHT22;10517;50.742;4.224;2023-12-22T12:22:53;10.80;99.90
20712;DHT22;10517;50.742;4.224;2023-12-22T12:25:22;10.80;99.90
20712;DHT22;10517;50.742;4.224;2023-12-22T12:28:03;10.80;99.90
20712;DHT22;10517;50.742;4.224;2023-12-22T12:30:30;10.90;99.90
20712;DHT22;10517;50.742;4.224;2023-12-22T12:33:11;10.90;99.90
20712;DHT22;10517;50.742;4.224;2023-12-22T12:35:38;10.70;99.90
20712;DHT22;10517;50.742;4.224;2023-12-22T12:38:04;10.60;99.90
20712;DHT22;10517;50.742;4.224;2023-12-22T12:40:30;10.60;99.90
20712;DHT22;10517;50.742;4.224;2023-12-22T12:43:01;10.60;99.90
20712;DHT22;10517;50.742;4.224;2023-12-22T12:45:28;10.60;99.90
20712;DHT22;10517;50.742;4.224;2023-12-22T12:48:01;10.60;99.90
20712;DHT22;10517;50.742;4.224;2023-12-22T12:50:27;10.70;99.90
20712;DHT22;10517;50.742;4.224;2023-12-22T12:52:59;10.70;99.90
20712;DHT22;10517;50.742;4.224;2023-12-22T12:55:25;10.60;99.90
20712;DHT22;10517;50.742;4.224;2023-12-22T12:57:55;10.60;99.90
20712;DHT22;10517;50.742;4.224;2023-12-22T13:00:27;10.60;99.90
20712;DHT22;10517;50.742;4.224;2023-12-22T13:03:00;10.50;99.90
20712;DHT22;10517;50.742;4.224;2023-12-22T13:05:25;10.40;99.90
20712;DHT22;10517;50.742;4.224;2023-12-22T13:07:51;10.40;99.90
20712;DHT22;10517;50.742;4.224;2023-12-22T13:10:24;10.30;99.90
20712;DHT22;10517;50.742;4.224;2023-12-22T13:12:51;10.30;99.90
20712;DHT22;10517;50.742;4.224;2023-12-22T13:15:16;10.30;99.90
20712;DHT22;10517;50.742;4.224;2023-12-22T13:17:44;10.40;99.90
20712;DHT22;10517;50.742;4.224;2023-12-22T13:20:10;10.50;99.90
20712;DHT22;10517;50.742;4.224;2023-12-22T13:22:37;10.50;99.90
20712;DHT22;10517;50.742;4.224;2023-12-22T13:25:02;10.60;99.90
20712;DHT22;10517;50.742;4.224;2023-12-22T13:27:29;10.70;99.90
20712;DHT22;10517;50.742;4.224;2023-12-22T13:29:54;10.70;99.90
20712;DHT22;10517;50.742;4.224;2023-12-22T13:32:21;10.70;99.90
20712;DHT22;10517;50.742;4.224;2023-12-22T13:34:55;10.70;99.90
20712;DHT22;10517;50.742;4.224;2023-12-22T13:37:22;10.70;99.90
20712;DHT22;10517;50.742;4.224;2023-12-22T13:39:51;10.80;99.90
20712;DHT22;10517;50.742;4.224;2023-12-22T13:42:18;10.90;99.90
20712;DHT22;10517;50.742;4.224;2023-12-22T13:44:48;10.90;99.90
20712;DHT22;10517;50.742;4.224;2023-12-22T13:47:21;10.90;99.90
20712;DHT22;10517;50.742;4.224;2023-12-22T13:49:48;10.90;99.90
20712;DHT22;10517;50.742;4.224;2023-12-22T13:54:53;10.90;99.90
20712;DHT22;10517;50.742;4.224;2023-12-22T13:57:21;10.90;99.90
20712;DHT22;10517;50.742;4.224;2023-12-22T13:59:49;10.90;99.90
20712;DHT22;10517;50.742;4.224;2023-12-22T14:02:15;10.90;99.90
20712;DHT22;10517;50.742;4.224;2023-12-22T14:04:41;10.90;99.90
20712;DHT22;10517;50.742;4.224;2023-12-22T14:07:06;10.90;99.90
20712;DHT22;10517;50.742;4.224;2023-12-22T14:09:32;10.80;99.90
20712;DHT22;10517;50.742;4.224;2023-12-22T14:11:59;10.70;99.90
20712;DHT22;10517;50.742;4.224;2023-12-22T14:14:25;10.60;99.90
20712;DHT22;10517;50.742;4.224;2023-12-22T14:16:50;10.60;99.90
20712;DHT22;10517;50.742;4.224;2023-12-22T14:19:16;10.50;99.90
20712;DHT22;10517;50.742;4.224;2023-12-22T14:21:41;10.50;99.90
20712;DHT22;10517;50.742;4.224;2023-12-22T14:24:07;10.50;99.90
20712;DHT22;10517;50.742;4.224;2023-12-22T14:26:33;10.50;99.90
20712;DHT22;10517;50.742;4.224;2023-12-22T14:28:58;10.50;99.90
20712;DHT22;10517;50.742;4.224;2023-12-22T14:31:24;10.60;99.90
20712;DHT22;10517;50.742;4.224;2023-12-22T14:33:50;10.70;99.90
20712;DHT22;10517;50.742;4.224;2023-12-22T14:36:15;10.70;99.90
20712;DHT22;10517;50.742;4.224;2023-12-22T14:38:42;10.70;99.90
20712;DHT22;10517;50.742;4.224;2023-12-22T14:41:08;10.70;99.90
20712;DHT22;10517;50.742;4.224;2023-12-22T14:43:33;10.80;99.90
20712;DHT22;10517;50.742;4.224;2023-12-22T14:45:59;10.80;99.90
20712;DHT22;10517;50.742;4.224;2023-12-22T14:48:25;10.90;99.90
20712;DHT22;10517;50.742;4.224;2023-12-22T14:50:50;10.90;99.90
20712;DHT22;10517;50.742;4.224;2023-12-22T14:53:16;11.00;99.90
20712;DHT22;10517;50.742;4.224;2023-12-22T14:55:41;10.90;99.90
20712;DHT22;10517;50.742;4.224;2023-12-22T14:58:07;11.00;99.90
20712;DHT22;10517;50.742;4.224;2023-12-22T15:00:35;11.00;99.90
20712;DHT22;10517;50.742;4.224;2023-12-22T15:03:00;11.00;99.90
20712;DHT22;10517;50.742;4.224;2023-12-22T15:05:26;11.10;99.90
20712;DHT22;10517;50.742;4.224;2023-12-22T15:07:55;11.10;99.90
20712;DHT22;10517;50.742;4.224;2023-12-22T15:10:21;11.00;99.90
20712;DHT22;10517;50.742;4.224;2023-12-22T15:12:46;11.10;99.90
20712;DHT22;10517;50.742;4.224;2023-12-22T15:15:13;11.10;99.90
20712;DHT22;10517;50.742;4.224;2023-12-22T15:17:38;11.10;99.90
20712;DHT22;10517;50.742;4.224;2023-12-22T15:20:04;11.10;99.90
20712;DHT22;10517;50.742;4.224;2023-12-22T15:22:31;11.10;99.90
20712;DHT22;10517;50.742;4.224;2023-12-22T15:24:57;11.10;99.90
20712;DHT22;10517;50.742;4.224;2023-12-22T15:27:23;11.10;99.90
20712;DHT22;10517;50.742;4.224;2023-12-22T15:29:49;11.10;99.90
20712;DHT22;10517;50.742;4.224;2023-12-22T15:32:14;11.20;99.90
20712;DHT22;10517;50.742;4.224;2023-12-22T15:34:43;11.10;99.90
20712;DHT22;10517;50.742;4.224;2023-12-22T15:37:08;11.10;99.90
20712;DHT22;10517;50.742;4.224;2023-12-22T15:39:34;11.10;99.90
20712;DHT22;10517;50.742;4.224;2023-12-22T15:42:00;11.10;99.90
20712;DHT22;10517;50.742;4.224;2023-12-22T15:44:26;11.10;99.90
20712;DHT22;10517;50.742;4.224;2023-12-22T15:46:54;11.00;99.90
20712;DHT22;10517;50.742;4.224;2023-12-22T15:49:20;11.00;99.90